.
WxDataArchive / Data Records for 2010-03-08
2010-03-07 March 2010 2010-03-09

Data Records for Monday, 08 March 2010

Time	Temp	Chill	HIndex	Humid	Dewpt	 Wind 	HiWind	WindDir	Rain 	Barom 
-----	----	-----	------	-----	-----	------	------	-------	-----	----- 
00:00	40.8	40.8	40.8	89	37.8	0	1	248	0.00	30.110 
00:05	40.8	40.8	40.8	90	38.1	0	1	248	0.00	30.110 
00:10	40.8	40.8	40.8	90	38.1	0	0	---	0.00	30.110 
00:15	40.6	40.6	40.6	90	37.9	0	0	---	0.00	30.105 
00:20	40.6	40.6	40.6	90	37.9	0	0	---	0.00	30.105 
00:25	40.6	40.6	40.6	90	37.9	0	0	---	0.00	30.105 
00:30	40.6	40.6	40.6	90	37.9	0	0	---	0.00	30.096 
00:35	40.6	40.6	40.6	90	37.9	0	0	---	0.00	30.096 
00:40	40.6	40.6	40.6	90	37.9	0	0	---	0.00	30.096 
00:45	40.6	40.6	40.6	90	37.9	0	0	---	0.00	30.108 
00:50	40.5	40.5	40.5	90	37.8	0	0	---	0.00	30.108 
00:55	40.5	40.5	40.5	90	37.8	0	0	---	0.00	30.108 
01:00	40.3	40.3	40.3	90	37.6	0	0	---	0.00	30.108 
01:05	40.3	40.3	40.3	90	37.6	0	0	---	0.00	30.108 
01:10	40.3	40.3	40.3	90	37.6	0	0	---	0.00	30.108 
01:15	40.3	40.3	40.3	90	37.6	0	0	---	0.00	30.108 
01:20	40.3	40.3	40.3	90	37.6	0	0	---	0.00	30.108 
01:25	40.2	40.2	40.2	90	37.5	0	0	---	0.00	30.108 
01:30	40.2	40.2	40.2	91	37.8	0	0	---	0.00	30.108 
01:35	40.1	40.1	40.1	91	37.7	0	0	---	0.00	30.108 
01:40	40.1	40.1	40.1	91	37.7	0	0	---	0.00	30.108 
01:45	40.1	40.1	40.1	91	37.7	0	0	---	0.00	30.104 
01:50	40.2	40.2	40.2	91	37.8	0	0	---	0.00	30.104 
01:55	40.2	40.2	40.2	91	37.8	0	0	---	0.00	30.104 
02:00	40.2	40.2	40.2	91	37.8	0	0	---	0.00	30.104 
02:05	40.2	40.2	40.2	91	37.8	0	0	---	0.00	30.104 
02:10	40.2	40.2	40.2	92	38.1	0	0	---	0.00	30.104 
02:15	40.2	40.2	40.2	92	38.1	0	0	---	0.00	30.096 
02:20	40.2	40.2	40.2	92	38.1	0	0	---	0.00	30.096 
02:25	40.1	40.1	40.1	92	38.0	0	0	---	0.00	30.096 
02:30	40.1	40.1	40.1	92	38.0	0	0	---	0.00	30.095 
02:35	39.9	39.9	39.9	92	37.8	0	0	---	0.00	30.095 
02:40	39.9	39.9	39.9	92	37.8	0	0	---	0.00	30.095 
02:45	39.9	39.9	39.9	92	37.8	0	0	---	0.00	30.095 
02:50	40.1	40.1	40.1	92	38.0	0	0	---	0.00	30.095 
02:55	40.1	40.1	40.1	92	38.0	0	2	248	0.00	30.095 
03:00	40.1	40.1	40.1	91	37.7	0	2	248	0.00	30.087 
03:05	39.9	39.9	39.9	91	37.5	0	1	248	0.00	30.087 
03:10	39.8	39.8	39.8	91	37.4	0	2	248	0.00	30.087 
03:15	39.5	39.5	39.5	91	37.1	0	1	248	0.00	30.077 
03:20	39.3	39.3	39.3	91	36.9	0	0	---	0.00	30.077 
03:25	39.1	39.1	39.1	91	36.7	0	0	---	0.00	30.077 
03:30	38.8	38.8	38.8	91	36.4	0	0	---	0.00	30.075 
03:35	38.3	38.3	38.3	91	35.9	0	0	---	0.00	30.075 
03:40	38.0	38.0	38.0	91	35.6	0	0	---	0.00	30.075 
03:45	37.8	37.8	37.8	91	35.4	0	0	---	0.00	30.072 
03:50	37.5	37.5	37.5	91	35.1	0	0	---	0.00	30.072 
03:55	37.3	37.3	37.3	91	34.9	0	0	---	0.00	30.072 
04:00	37.0	37.0	37.0	91	34.6	0	0	---	0.00	30.075 
04:05	36.8	36.8	36.8	91	34.4	0	0	---	0.00	30.075 
04:10	36.5	36.5	36.5	91	34.1	0	0	---	0.00	30.075 
04:15	36.2	36.2	36.2	91	33.8	0	0	---	0.00	30.083 
04:20	35.9	35.9	35.9	91	33.5	0	0	---	0.00	30.083 
04:25	35.8	35.8	35.8	91	33.4	0	0	---	0.00	30.083 
04:30	35.5	35.5	35.5	92	33.4	0	0	---	0.00	30.090 
04:35	35.2	35.2	35.2	91	32.8	0	0	---	0.00	30.090 
04:40	34.9	34.9	34.9	91	32.5	0	0	---	0.00	30.090 
04:45	34.7	34.7	34.7	91	32.3	0	0	---	0.00	30.097 
04:50	34.4	34.4	34.4	92	32.3	0	0	---	0.00	30.097 
04:55	34.3	34.3	34.3	92	32.2	0	0	---	0.00	30.097 
05:00	34.1	34.1	34.1	92	32.0	0	0	---	0.00	30.099 
05:05	33.8	33.8	33.8	92	31.7	0	0	---	0.00	30.099 
05:10	33.7	33.7	33.7	92	31.6	0	0	---	0.00	30.099 
05:15	33.5	33.5	33.5	92	31.4	0	0	---	0.00	30.105 
05:20	33.2	33.2	33.2	92	31.1	0	0	---	0.00	30.105 
05:25	33.1	33.1	33.1	92	31.0	0	0	---	0.00	30.105 
05:30	32.8	32.8	32.8	92	30.7	0	0	---	0.00	30.105 
05:35	32.7	32.7	32.7	92	30.6	0	0	---	0.00	30.105 
05:40	32.5	32.5	32.5	92	30.4	0	0	---	0.00	30.105 
05:45	32.4	32.4	32.4	92	30.3	0	0	---	0.00	30.112 
05:50	32.2	32.2	32.2	92	30.1	0	1	248	0.00	30.112 
05:55	32.2	32.2	32.2	93	30.4	0	2	248	0.00	30.112 
06:00	32.2	32.2	32.2	93	30.4	0	0	---	0.00	30.121 
06:05	32.2	32.2	32.2	93	30.4	0	0	---	0.00	30.121 
06:10	32.1	32.1	32.1	93	30.3	0	0	---	0.00	30.121 
06:15	31.9	31.9	31.9	93	30.1	0	0	---	0.00	30.127 
06:20	31.9	31.9	31.9	93	30.1	0	0	---	0.00	30.127 
06:25	31.8	31.8	31.8	93	30.0	0	0	---	0.00	30.127 
06:30	31.9	31.9	31.9	93	30.1	0	0	---	0.00	30.133 
06:35	31.9	31.9	31.9	93	30.1	0	0	---	0.00	30.133 
06:40	31.9	31.9	31.9	93	30.1	0	0	---	0.00	30.133 
06:45	31.8	31.8	31.8	93	30.0	0	0	---	0.00	30.135 
06:50	31.8	31.8	31.8	93	30.0	0	0	---	0.00	30.135 
06:55	31.9	31.9	31.9	94	30.4	0	0	---	0.00	30.135 
07:00	32.1	32.1	32.1	94	30.6	0	0	---	0.00	30.137 
07:05	32.4	32.4	32.4	94	30.9	0	0	---	0.00	30.137 
07:10	32.5	32.5	32.5	94	31.0	0	0	---	0.00	30.137 
07:15	32.7	32.7	32.7	94	31.2	0	0	---	0.00	30.136 
07:20	32.8	32.8	32.8	94	31.3	0	1	248	0.00	30.136 
07:25	32.9	32.9	32.9	94	31.4	0	0	---	0.00	30.136 
07:30	33.1	33.1	33.1	94	31.6	0	0	---	0.00	30.144 
07:35	33.2	33.2	33.2	94	31.7	0	0	---	0.00	30.144 
07:40	33.5	33.5	33.5	95	32.2	0	0	---	0.00	30.144 
07:45	33.7	33.7	33.7	95	32.4	0	0	---	0.00	30.148 
07:50	33.8	33.8	33.8	95	32.5	0	0	---	0.00	30.148 
07:55	34.0	34.0	34.0	95	32.7	0	0	---	0.00	30.148 
08:00	34.3	34.3	34.3	95	33.0	0	0	---	0.00	30.150 
08:05	34.6	34.6	34.6	95	33.3	0	0	---	0.00	30.150 
08:10	34.7	34.7	34.7	95	33.4	0	0	---	0.00	30.150 
08:15	34.9	34.9	34.9	95	33.6	0	0	---	0.00	30.151 
08:20	35.3	35.3	35.3	95	34.0	0	0	---	0.00	30.151 
08:25	35.5	35.5	35.5	95	34.2	0	0	---	0.00	30.151 
08:30	35.8	35.8	35.8	95	34.5	0	2	248	0.00	30.145 
08:35	35.9	35.9	35.9	95	34.6	0	1	248	0.00	30.145 
08:40	36.2	36.2	36.2	95	34.9	0	1	248	0.00	30.145 
08:45	36.5	36.5	36.5	96	35.5	0	2	248	0.00	30.145 
08:50	36.9	36.9	36.9	96	35.9	0	1	248	0.00	30.145 
08:55	37.2	37.2	37.2	96	36.2	0	0	---	0.00	30.145 
09:00	37.5	37.5	37.5	96	36.5	0	0	---	0.00	30.143 
09:05	37.9	37.9	37.9	96	36.9	0	1	248	0.00	30.143 
09:10	38.2	38.2	38.2	96	37.2	0	1	248	0.00	30.143 
09:15	38.5	38.5	38.5	96	37.5	0	1	248	0.00	30.139 
09:20	38.8	38.8	38.8	96	37.8	0	1	248	0.00	30.139 
09:25	38.9	38.9	38.9	96	37.9	0	1	248	0.00	30.139 
09:30	39.3	39.3	39.3	96	38.3	0	2	248	0.00	30.135 
09:35	39.8	39.8	39.8	96	38.8	0	1	248	0.00	30.135 
09:40	40.2	40.2	40.2	96	39.2	0	1	248	0.00	30.135 
09:45	40.8	40.8	40.8	95	39.5	0	1	248	0.00	30.133 
09:50	41.1	41.1	41.1	95	39.8	0	2	248	0.00	30.133 
09:55	41.5	41.5	41.5	94	39.9	1	3	248	0.00	30.133 
10:00	42.1	42.1	42.1	92	39.9	1	3	248	0.00	30.130 
10:05	43.2	43.2	43.2	90	40.5	1	4	90	0.00	30.130 
10:10	43.8	43.8	43.8	87	40.2	1	4	90	0.00	30.130 
10:15	44.8	44.8	44.8	84	40.3	1	3	90	0.00	30.128 
10:20	45.7	45.7	45.7	82	40.5	1	3	90	0.00	30.128 
10:25	46.0	46.0	46.0	79	39.9	1	4	90	0.00	30.128 
10:30	46.2	46.2	46.2	77	39.4	0	3	90	0.00	30.130 
10:35	46.8	46.8	46.8	75	39.3	0	3	90	0.00	30.130 
10:40	47.4	47.4	47.4	72	38.8	1	4	90	0.00	30.130 
10:45	47.9	47.9	47.9	71	39.0	0	2	90	0.00	30.129 
10:50	48.5	48.5	48.5	69	38.8	0	2	90	0.00	30.129 
10:55	49.1	49.1	49.1	69	39.4	0	3	90	0.00	30.129 
11:00	49.2	49.2	49.2	66	38.3	1	4	90	0.00	30.126 
11:05	49.6	49.6	49.6	65	38.3	1	3	90	0.00	30.126 
11:10	49.9	49.9	49.9	64	38.2	1	3	90	0.00	30.126 
11:15	49.9	49.9	49.9	65	38.6	1	3	90	0.00	30.126 
11:20	49.8	49.8	49.8	65	38.5	2	3	90	0.00	30.126 
11:25	49.6	49.6	49.6	65	38.3	2	5	90	0.00	30.126 
11:30	49.9	49.9	49.9	64	38.2	2	6	90	0.00	30.125 
11:35	50.1	50.1	50.1	65	38.8	1	4	112	0.00	30.125 
11:40	50.4	50.4	50.4	64	38.7	2	5	90	0.00	30.125 
11:45	50.5	50.5	50.5	65	39.2	1	5	90	0.00	30.121 
11:50	51.1	51.1	51.1	63	38.9	1	4	90	0.00	30.121 
11:55	51.6	51.6	51.6	61	38.6	1	4	135	0.00	30.121 
12:00	51.6	51.6	51.6	61	38.6	1	4	112	0.00	30.110 
12:05	51.6	51.6	51.6	63	39.4	2	6	112	0.00	30.110 
12:10	51.7	51.7	51.7	60	38.3	2	5	90	0.00	30.110 
12:15	52.0	52.0	52.0	62	39.4	1	3	135	0.00	30.107 
12:20	52.2	52.2	52.2	60	38.7	1	3	112	0.00	30.107 
12:25	52.2	52.2	52.2	60	38.7	2	5	90	0.00	30.107 
12:30	52.3	52.3	52.3	61	39.3	0	2	90	0.00	30.102 
12:35	52.5	52.5	52.5	60	39.0	0	2	90	0.00	30.102 
12:40	53.1	53.1	53.1	60	39.6	1	3	90	0.00	30.102 
12:45	53.1	53.1	53.1	58	38.7	0	3	112	0.00	30.098 
12:50	53.2	53.2	53.2	58	38.8	1	5	112	0.00	30.098 
12:55	53.5	53.5	53.5	61	40.4	1	4	90	0.00	30.098 
13:00	53.5	53.5	53.5	57	38.6	1	3	270	0.00	30.095 
13:05	53.1	53.1	53.1	59	39.2	0	1	270	0.00	30.095 
13:10	53.1	53.1	53.1	60	39.6	1	3	112	0.00	30.095 
13:15	53.2	53.2	53.2	59	39.2	1	3	135	0.00	30.093 
13:20	53.6	53.6	53.6	60	40.1	0	3	270	0.00	30.093 
13:25	53.5	53.5	53.5	59	39.5	0	2	270	0.00	30.093 
13:30	53.1	53.1	53.1	58	38.7	0	1	270	0.00	30.091 
13:35	52.9	52.9	52.9	58	38.5	0	1	270	0.00	30.091 
13:40	52.6	52.6	52.6	58	38.2	0	2	270	0.00	30.091 
13:45	53.2	53.2	53.2	60	39.7	0	2	270	0.00	30.079 
13:50	54.4	54.4	54.4	57	39.5	1	4	248	0.00	30.079 
13:55	54.7	54.7	54.7	56	39.3	1	5	248	0.00	30.079 
14:00	55.0	55.0	55.0	55	39.1	1	3	248	0.00	30.074 
14:05	54.7	54.7	54.7	57	39.8	1	3	248	0.00	30.074 
14:10	54.5	54.5	54.5	57	39.6	0	2	248	0.00	30.074 
14:15	54.5	54.5	54.5	56	39.1	1	2	248	0.00	30.064 
14:20	54.5	54.5	54.5	56	39.1	1	3	135	0.00	30.064 
14:25	54.4	54.4	54.4	57	39.5	0	2	135	0.00	30.064 
14:30	54.7	54.7	54.7	58	40.2	0	1	135	0.00	30.058 
14:35	54.8	54.8	54.8	55	38.9	0	2	135	0.00	30.058 
14:40	55.0	55.0	55.0	56	39.6	0	1	45	0.00	30.058 
14:45	55.3	55.3	55.3	56	39.9	0	2	45	0.00	30.054 
14:50	55.3	55.3	55.3	55	39.4	1	4	90	0.00	30.054 
14:55	55.0	55.0	55.0	56	39.6	1	5	112	0.00	30.054 
15:00	54.8	54.8	54.8	56	39.4	1	5	112	0.00	30.050 
15:05	54.8	54.8	54.8	57	39.9	2	5	112	0.00	30.050 
15:10	54.7	54.7	54.7	56	39.3	1	3	90	0.00	30.050 
15:15	54.8	54.8	54.8	56	39.4	1	2	90	0.00	30.044 
15:20	55.1	55.1	55.1	56	39.7	0	3	90	0.00	30.044 
15:25	55.1	55.1	55.1	54	38.8	1	4	112	0.00	30.044 
15:30	54.8	54.8	54.8	55	38.9	1	4	112	0.00	30.040 
15:35	55.0	55.0	55.0	55	39.1	1	2	112	0.00	30.040 
15:40	55.0	55.0	55.0	55	39.1	1	5	90	0.00	30.040 
15:45	54.8	54.8	54.8	56	39.4	2	5	90	0.00	30.039 
15:50	55.0	55.0	55.0	56	39.6	1	5	68	0.00	30.039 
15:55	55.0	55.0	55.0	55	39.1	1	4	112	0.00	30.039 
16:00	55.1	55.1	55.1	56	39.7	2	5	112	0.00	30.035 
16:05	55.3	55.3	55.3	56	39.9	1	4	292	0.00	30.035 
16:10	55.4	55.4	55.4	54	39.0	1	5	112	0.00	30.035 
16:15	55.3	55.3	55.3	56	39.9	1	5	90	0.00	30.035 
16:20	55.3	55.3	55.3	56	39.9	2	4	90	0.00	30.035 
16:25	55.0	55.0	55.0	56	39.6	2	5	90	0.00	30.035 
16:30	54.8	54.8	54.8	57	39.9	2	4	90	0.00	30.032 
16:35	54.8	54.8	54.8	57	39.9	1	4	90	0.00	30.032 
16:40	54.8	54.8	54.8	56	39.4	1	4	90	0.00	30.032 
16:45	54.8	54.8	54.8	57	39.9	2	6	112	0.00	30.030 
16:50	54.7	54.7	54.7	57	39.8	2	5	112	0.00	30.030 
16:55	54.5	54.5	54.5	58	40.0	2	5	112	0.00	30.030 
17:00	54.4	54.4	54.4	57	39.5	1	3	112	0.00	30.030 
17:05	54.4	54.4	54.4	58	39.9	2	5	90	0.00	30.030 
17:10	54.2	54.2	54.2	57	39.3	1	4	112	0.00	30.030 
17:15	54.2	54.2	54.2	57	39.3	2	4	112	0.00	30.030 
17:20	54.1	54.1	54.1	58	39.7	1	3	112	0.00	30.030 
17:25	54.1	54.1	54.1	57	39.2	1	4	112	0.00	30.030 
17:30	53.9	53.9	53.9	58	39.5	1	3	112	0.00	30.027 
17:35	53.8	53.8	53.8	58	39.4	1	3	112	0.00	30.027 
17:40	53.6	53.6	53.6	59	39.6	0	2	135	0.00	30.027 
17:45	53.5	53.5	53.5	59	39.5	0	2	135	0.00	30.029 
17:50	53.3	53.3	53.3	59	39.3	0	2	135	0.00	30.029 
17:55	53.1	53.1	53.1	60	39.6	0	1	135	0.00	30.029 
18:00	52.9	52.9	52.9	60	39.4	0	2	112	0.00	30.027 
18:05	52.6	52.6	52.6	60	39.1	1	3	112	0.00	30.027 
18:10	52.5	52.5	52.5	60	39.0	0	3	135	0.00	30.027 
18:15	52.3	52.3	52.3	61	39.3	0	1	135	0.00	30.029 
18:20	52.0	52.0	52.0	61	39.0	0	1	135	0.00	30.029 
18:25	51.7	51.7	51.7	62	39.1	0	0	---	0.00	30.029 
18:30	51.3	51.3	51.3	62	38.7	0	0	---	0.00	30.030 
18:35	50.8	50.8	50.8	63	38.7	0	1	135	0.00	30.030 
18:40	50.4	50.4	50.4	64	38.7	0	0	---	0.00	30.030 
18:45	49.9	49.9	49.9	64	38.2	0	0	---	0.00	30.029 
18:50	49.5	49.5	49.5	65	38.2	0	0	---	0.00	30.029 
18:55	48.9	48.9	48.9	66	38.0	0	0	---	0.00	30.029 
19:00	48.5	48.5	48.5	66	37.7	0	0	---	0.00	30.028 
19:05	47.9	47.9	47.9	67	37.5	0	0	---	0.00	30.028 
19:10	47.4	47.4	47.4	68	37.4	0	0	---	0.00	30.028 
19:15	46.8	46.8	46.8	69	37.2	0	0	---	0.00	30.031 
19:20	46.4	46.4	46.4	70	37.2	0	0	---	0.00	30.031 
19:25	46.0	46.0	46.0	72	37.5	0	0	---	0.00	30.031 
19:30	45.5	45.5	45.5	73	37.4	0	0	---	0.00	30.035 
19:35	45.1	45.1	45.1	73	37.0	0	0	---	0.00	30.035 
19:40	44.6	44.6	44.6	73	36.5	0	0	---	0.00	30.035 
19:45	44.1	44.1	44.1	74	36.4	0	0	---	0.00	30.037 
19:50	43.6	43.6	43.6	77	36.9	0	0	---	0.00	30.037 
19:55	43.3	43.3	43.3	78	36.9	0	0	---	0.00	30.037 
20:00	42.9	42.9	42.9	79	36.8	0	0	---	0.00	30.030 
20:05	42.5	42.5	42.5	80	36.8	0	0	---	0.00	30.030 
20:10	42.2	42.2	42.2	80	36.5	0	0	---	0.00	30.030 
20:15	41.9	41.9	41.9	81	36.5	0	0	---	0.00	30.024 
20:20	41.6	41.6	41.6	82	36.5	0	0	---	0.00	30.024 
20:25	41.3	41.3	41.3	82	36.2	0	0	---	0.00	30.024 
20:30	41.2	41.2	41.2	83	36.4	0	0	---	0.00	30.026 
20:35	40.9	40.9	40.9	84	36.4	0	0	---	0.00	30.026 
20:40	40.6	40.6	40.6	84	36.2	0	0	---	0.00	30.026 
20:45	40.3	40.3	40.3	84	35.9	0	0	---	0.00	30.027 
20:50	40.2	40.2	40.2	84	35.8	0	0	---	0.00	30.027 
20:55	40.1	40.1	40.1	85	36.0	0	0	---	0.00	30.027 
21:00	39.8	39.8	39.8	85	35.7	0	0	---	0.00	30.027 
21:05	39.5	39.5	39.5	85	35.4	0	0	---	0.00	30.027 
21:10	39.3	39.3	39.3	86	35.5	0	0	---	0.00	30.027 
21:15	39.1	39.1	39.1	86	35.3	0	0	---	0.00	30.030 
21:20	38.9	38.9	38.9	86	35.1	0	0	---	0.00	30.030 
21:25	38.6	38.6	38.6	86	34.8	0	0	---	0.00	30.030 
21:30	38.5	38.5	38.5	87	35.0	0	0	---	0.00	30.037 
21:35	38.3	38.3	38.3	87	34.8	0	0	---	0.00	30.037 
21:40	38.2	38.2	38.2	88	35.0	0	0	---	0.00	30.037 
21:45	37.9	37.9	37.9	88	34.7	0	0	---	0.00	30.040 
21:50	37.8	37.8	37.8	88	34.6	0	0	---	0.00	30.040 
21:55	37.5	37.5	37.5	88	34.3	0	0	---	0.00	30.040 
22:00	37.2	37.2	37.2	88	34.0	0	0	---	0.00	30.044 
22:05	37.0	37.0	37.0	89	34.1	0	0	---	0.00	30.044 
22:10	37.0	37.0	37.0	89	34.1	0	0	---	0.00	30.044 
22:15	36.9	36.9	36.9	89	34.0	0	0	---	0.00	30.038 
22:20	36.8	36.8	36.8	90	34.1	0	0	---	0.00	30.038 
22:25	36.6	36.6	36.6	90	33.9	0	0	---	0.00	30.038 
22:30	36.5	36.5	36.5	90	33.9	0	0	---	0.00	30.036 
22:35	36.5	36.5	36.5	90	33.9	0	0	---	0.00	30.036 
22:40	36.3	36.3	36.3	91	33.9	0	0	---	0.00	30.036 
22:45	36.0	36.0	36.0	91	33.6	0	0	---	0.00	30.038 
22:50	35.9	35.9	35.9	91	33.5	0	0	---	0.00	30.038 
22:55	35.6	35.6	35.6	91	33.2	0	0	---	0.00	30.038 
23:00	35.3	35.3	35.3	91	32.9	0	0	---	0.00	30.036 
23:05	35.0	35.0	35.0	91	32.6	0	0	---	0.00	30.036 
23:10	34.9	34.9	34.9	91	32.5	0	0	---	0.00	30.036 
23:15	34.9	34.9	34.9	92	32.8	0	0	---	0.00	30.038 
23:20	34.9	34.9	34.9	92	32.8	0	0	---	0.00	30.038 
23:25	34.7	34.7	34.7	92	32.6	0	0	---	0.00	30.038 
23:30	34.6	34.6	34.6	92	32.5	0	0	---	0.00	30.037 
23:35	34.4	34.4	34.4	92	32.3	0	0	---	0.00	30.037 
23:40	34.4	34.4	34.4	92	32.3	0	0	---	0.00	30.037 
23:45	34.3	34.3	34.3	92	32.2	0	0	---	0.00	30.037 
23:50	34.1	34.1	34.1	92	32.0	0	0	---	0.00	30.037 
23:55	34.0	34.0	34.0	92	31.9	0	0	---	0.00	30.037 

CoCoRaHS
IN-AL-39
A2 Web Hosting
Creative Commons License
GoDaddy
search engine by freefind advanced

loaded 2018-11-15 16:56:19 • last modified 2010-11-18 10:43:29
Privacy PolicyDisclaimer
• wx.awcolley.com is powered by PmWiki v.2002016 •
• all content (unless otherwise noted) © 2018 A W Colley